< < Back
Terminal Aerodrome Forecast


Current Version              Previous Versions:   1  2  3  4  5  6  7  8  9  

Terminal Aerodrome Forecast

454
FTUS42 KCHS 012100 CCA
TAFCHS
TAF COR
KCHS 012121Z 0121/0218 16012KT P6SM VCTS SCT035CB BKN250
      TEMPO 0121/0123 VRB15G20KT
     FM012330 20005KT P6SM SCT025 BKN250=

Latest METAR

362
SAUS80 KWBC 021700 RRB
MTRCHS
METAR KCHS 021656Z VRB06KT 10SM SCT040 BKN250 34/22 A3008 RMK AO2 SLP183
T03390222


USA.gov is the U.S. government's official web portal to all federal, state and local government web resources and services.